Time;durP1;ratioP1;P1;durP2;ratioP2;P2;SDS_P1;SDS_P2;PMS_P1;PMS_P2;Temp;Humidity;BMP_temperature;BMP_pressure;BME280_temperature;BME280_humidity;BME280_pressure;Samples;Min_cycle;Max_cycle;Signal;HPM_P1;HPM_P2
2022/11/05 00:10:27;;;;;;;7.67;4.87;;;9.70;99.90;;;;;;4972982;28;20408;-66
2022/11/05 00:18:24;;;;;;;9.97;5.93;;;9.70;99.90;;;;;;4980867;28;20412;-67
2022/11/05 00:20:50;;;;;;;6.17;4.90;;;9.70;99.90;;;;;;4972041;28;20409;-66
2022/11/05 00:26:03;;;;;;;13.37;4.80;;;9.70;99.90;;;;;;4973264;28;20240;-66
2022/11/05 00:28:29;;;;;;;8.73;5.70;;;9.60;99.90;;;;;;4972492;28;20858;-67
2022/11/05 00:31:08;;;;;;;15.67;6.43;;;9.60;99.90;;;;;;4972097;28;20449;-66
2022/11/05 00:33:34;;;;;;;17.93;5.90;;;9.70;99.90;;;;;;4971862;28;20461;-67
2022/11/05 00:36:05;;;;;;;17.93;6.47;;;9.60;99.90;;;;;;4973088;28;20420;-66
2022/11/05 00:38:31;;;;;;;7.20;5.00;;;9.70;99.90;;;;;;4972583;28;20441;-66
2022/11/05 00:40:57;;;;;;;7.23;5.10;;;9.70;99.90;;;;;;4972273;28;20409;-66
2022/11/05 00:46:07;;;;;;;8.07;4.47;;;9.70;99.90;;;;;;4972975;28;20455;-66
2022/11/05 00:51:16;;;;;;;5.23;4.40;;;9.60;99.90;;;;;;4972255;28;20590;-66
2022/11/05 00:53:42;;;;;;;7.87;3.87;;;9.60;99.90;;;;;;4972212;28;20496;-66
2022/11/05 00:56:08;;;;;;;4.73;4.27;;;9.70;99.90;;;;;;4972627;28;20185;-66
2022/11/05 00:58:34;;;;;;;5.17;4.53;;;9.70;99.90;;;;;;4972131;28;20166;-66
2022/11/05 01:01:00;;;;;;;5.47;4.27;;;9.70;99.90;;;;;;4971295;28;20585;-66
2022/11/05 01:03:29;;;;;;;12.90;5.03;;;9.70;99.90;;;;;;4969325;28;20284;-66
2022/11/05 01:06:17;;;;;;;4.73;4.20;;;9.70;99.90;;;;;;4963849;28;20445;-66
2022/11/05 01:08:45;;;;;;;5.63;5.07;;;9.60;99.90;;;;;;4952623;28;20937;-67
2022/11/05 01:11:31;;;;;;;4.43;4.03;;;9.60;99.90;;;;;;4951987;28;20474;-67
2022/11/05 01:13:59;;;;;;;5.10;4.03;;;9.60;99.90;;;;;;4952699;28;20462;-66
2022/11/05 01:16:24;;;;;;;4.93;4.30;;;9.60;99.90;;;;;;4952589;28;20512;-65
2022/11/05 01:18:50;;;;;;;8.20;4.60;;;9.60;99.90;;;;;;4952473;29;20493;-66
2022/11/05 01:21:16;;;;;;;9.73;4.33;;;9.60;99.90;;;;;;4951655;28;20182;-66
2022/11/05 01:23:41;;;;;;;22.17;6.40;;;9.70;99.90;;;;;;4952781;29;20174;-66
2022/11/05 01:26:07;;;;;;;7.47;4.20;;;9.70;99.90;;;;;;4952150;29;20202;-66
2022/11/05 01:28:33;;;;;;;27.27;7.23;;;9.70;99.90;;;;;;4952423;28;20197;-66
2022/11/05 01:30:59;;;;;;;11.53;5.23;;;9.80;99.90;;;;;;4951391;28;20414;-66
2022/11/05 01:33:24;;;;;;;9.80;4.60;;;9.70;99.90;;;;;;4952442;29;20202;-66
2022/11/05 01:35:50;;;;;;;7.80;4.13;;;9.70;99.90;;;;;;4951645;29;20221;-66
2022/11/05 01:38:19;;;;;;;16.13;4.83;;;9.70;99.90;;;;;;4952410;28;20240;-66
2022/11/05 01:40:45;;;;;;;6.47;4.97;;;9.80;99.90;;;;;;4951229;28;20283;-66
2022/11/05 01:43:19;;;;;;;5.13;4.63;;;9.70;99.90;;;;;;4952395;28;21162;-66
2022/11/05 01:45:50;;;;;;;5.23;4.57;;;9.70;99.90;;;;;;4951472;28;21033;-66
2022/11/05 01:48:23;;;;;;;4.23;3.83;;;9.70;99.90;;;;;;4952332;28;20405;-65
2022/11/05 01:50:58;;;;;;;4.73;4.13;;;9.80;99.90;;;;;;4950863;29;21086;-66
2022/11/05 01:53:26;;;;;;;5.97;4.10;;;9.80;99.90;;;;;;4951892;28;20537;-66
2022/11/05 01:56:14;;;;;;;13.23;5.03;;;9.90;99.90;;;;;;4952018;29;20441;-66
2022/11/05 01:58:53;;;;;;;9.60;4.43;;;9.90;99.90;;;;;;4951850;28;20406;-66
2022/11/05 02:01:19;;;;;;;7.77;4.80;;;9.90;99.90;;;;;;4960751;28;20424;-66
2022/11/05 02:03:47;;;;;;;5.30;4.10;;;9.80;99.90;;;;;;4969469;28;20429;-66
2022/11/05 02:06:15;;;;;;;16.20;5.40;;;9.80;99.90;;;;;;4970856;28;20647;-66
2022/11/05 02:08:59;;;;;;;5.73;5.03;;;9.80;99.90;;;;;;4971088;28;20405;-66
2022/11/05 02:11:25;;;;;;;5.03;4.53;;;9.80;99.90;;;;;;4970539;28;20409;-66
2022/11/05 02:13:51;;;;;;;8.73;6.10;;;9.80;99.90;;;;;;4970804;28;20463;-66
2022/11/05 02:16:38;;;;;;;5.47;4.27;;;9.80;99.90;;;;;;4970985;28;20444;-66
2022/11/05 02:19:37;;;;;;;9.03;5.13;;;9.90;99.90;;;;;;4970262;28;20404;-66
2022/11/05 02:22:27;;;;;;;4.43;4.03;;;9.90;99.90;;;;;;4970452;28;20401;-66
2022/11/05 02:24:55;;;;;;;15.67;5.40;;;9.90;99.90;;;;;;4970494;28;20404;-65
2022/11/05 02:28:04;;;;;;;5.30;4.07;;;9.80;99.90;;;;;;4970972;28;20453;-66
2022/11/05 02:30:55;;;;;;;5.90;4.73;;;9.80;99.90;;;;;;4969857;28;20413;-66
2022/11/05 02:34:00;;;;;;;9.83;4.90;;;9.70;99.90;;;;;;4970385;28;20457;-67
2022/11/05 02:36:30;;;;;;;5.97;4.10;;;9.80;99.90;;;;;;4971586;28;20519;-67
2022/11/05 02:39:07;;;;;;;12.40;5.37;;;9.80;99.90;;;;;;4970606;28;20775;-67
2022/11/05 02:41:55;;;;;;;11.70;4.87;;;9.90;99.90;;;;;;4969996;28;20409;-67
2022/11/05 02:44:32;;;;;;;7.73;5.27;;;9.80;99.90;;;;;;4970483;28;20405;-67
2022/11/05 02:47:22;;;;;;;5.37;4.13;;;9.70;99.90;;;;;;4970705;28;20448;-67
2022/11/05 02:50:14;;;;;;;4.50;3.70;;;9.70;99.90;;;;;;4970252;28;20435;-67
2022/11/05 02:52:53;;;;;;;9.50;4.23;;;9.70;99.90;;;;;;4970231;28;20843;-66
2022/11/05 02:55:28;;;;;;;20.73;5.47;;;9.70;1.00;;;;;;4970554;28;20527;-67
2022/11/05 02:57:53;;;;;;;5.60;5.07;;;9.70;1.00;;;;;;4973399;28;20794;-67
2022/11/05 03:00:41;;;;;;;12.67;5.20;;;9.80;99.90;;;;;;4973972;28;20401;-67
2022/11/05 03:03:33;;;;;;;14.63;4.70;;;9.80;99.90;;;;;;4973777;28;20170;-66
2022/11/05 03:06:36;;;;;;;14.60;4.73;;;9.80;99.90;;;;;;4974099;28;20443;-67
2022/11/05 03:09:23;;;;;;;5.90;3.87;;;9.70;1.00;;;;;;4974112;28;20424;-67
2022/11/05 03:12:03;;;;;;;4.70;3.97;;;9.80;1.00;;;;;;4973586;28;20413;-66
2022/11/05 03:15:03;;;;;;;10.00;6.27;;;9.70;1.00;;;;;;4974183;28;20543;-67
2022/11/05 03:17:47;;;;;;;5.60;3.80;;;9.70;1.00;;;;;;4974105;28;20786;-67
2022/11/05 03:20:21;;;;;;;11.10;4.33;;;9.80;1.00;;;;;;4973786;28;20397;-67
2022/11/05 03:23:06;;;;;;;6.90;3.83;;;9.80;1.00;;;;;;4973477;28;20417;-67
2022/11/05 03:25:38;;;;;;;6.13;5.00;;;9.80;1.00;;;;;;4973847;28;20404;-67
2022/11/05 03:28:06;;;;;;;7.70;5.23;;;9.80;99.90;;;;;;4973996;28;20531;-67
2022/11/05 03:30:34;;;;;;;5.57;3.97;;;9.70;1.00;;;;;;4973033;28;20409;-67
2022/11/05 03:33:05;;;;;;;4.83;4.00;;;9.70;1.00;;;;;;4972566;28;20572;-67
2022/11/05 03:35:36;;;;;;;4.97;4.17;;;9.60;1.00;;;;;;4973256;28;20409;-65
2022/11/05 03:38:09;;;;;;;4.30;3.90;;;9.60;1.00;;;;;;4973909;28;20409;-66
2022/11/05 03:40:36;;;;;;;5.50;3.37;;;9.70;1.00;;;;;;4973172;28;20419;-66
2022/11/05 03:43:06;;;;;;;9.83;4.30;;;9.60;1.00;;;;;;4973562;28;20412;-66
2022/11/05 03:45:40;;;;;;;5.40;3.40;;;9.60;1.00;;;;;;4973585;28;20862;-67
2022/11/05 03:48:09;;;;;;;9.30;4.10;;;9.60;1.00;;;;;;4974175;28;20520;-66
2022/11/05 03:50:55;;;;;;;3.90;3.43;;;9.70;1.00;;;;;;4972434;28;20717;-66
2022/11/05 03:53:36;;;;;;;3.83;3.30;;;9.70;1.00;;;;;;4973577;28;20815;-66
2022/11/05 03:56:10;;;;;;;10.33;4.10;;;9.80;1.00;;;;;;4973441;28;20416;-67
2022/11/05 03:58:40;;;;;;;4.63;3.70;;;9.80;1.00;;;;;;4972004;28;20413;-66
2022/11/05 04:01:06;;;;;;;7.93;3.30;;;9.80;1.00;;;;;;4972758;28;20410;-66
2022/11/05 04:03:37;;;;;;;19.70;5.50;;;9.80;1.00;;;;;;4972025;28;20476;-66
2022/11/05 04:14:18;;;;;;;8.50;3.77;;;9.80;1.00;;;;;;4973443;28;20522;-66
2022/11/05 04:24:56;;;;;;;17.20;4.27;;;9.70;1.00;;;;;;4973121;28;20420;-67
2022/11/05 04:27:22;;;;;;;6.10;3.60;;;9.70;1.00;;;;;;4972698;28;20428;-67
2022/11/05 04:32:32;;;;;;;5.63;3.73;;;9.70;1.00;;;;;;4971995;28;20248;-66
2022/11/05 04:34:58;;;;;;;5.07;4.53;;;9.60;1.00;;;;;;4972442;28;20401;-66
2022/11/05 04:37:24;;;;;;;12.50;4.30;;;9.60;1.00;;;;;;4972579;28;20530;-67
2022/11/05 04:39:49;;;;;;;7.50;4.20;;;9.60;1.00;;;;;;4972859;28;20713;-67
2022/11/05 04:42:15;;;;;;;11.10;4.37;;;9.60;1.00;;;;;;4971365;28;20180;-67
2022/11/05 04:44:40;;;;;;;7.10;3.50;;;9.70;1.00;;;;;;4972686;28;20173;-67
2022/11/05 04:47:06;;;;;;;6.50;3.43;;;9.80;1.00;;;;;;4970610;28;20221;-66
2022/11/05 04:49:32;;;;;;;16.90;5.17;;;9.80;1.00;;;;;;4966517;28;20174;-66
2022/11/05 04:51:58;;;;;;;5.27;3.73;;;9.80;1.00;;;;;;4960488;28;20537;-65
2022/11/05 04:54:23;;;;;;;4.50;3.40;;;9.80;1.00;;;;;;4952886;28;20285;-66
2022/11/05 04:56:49;;;;;;;4.93;4.03;;;9.70;1.00;;;;;;4953172;28;20201;-66
2022/11/05 04:59:15;;;;;;;3.57;3.27;;;9.70;1.00;;;;;;4951274;29;20170;-65
2022/11/05 05:01:40;;;;;;;5.43;4.90;;;9.70;1.00;;;;;;4964538;28;20583;-65
2022/11/05 05:04:06;;;;;;;10.40;3.77;;;9.70;1.00;;;;;;4971577;28;20176;-66
2022/11/05 05:06:32;;;;;;;8.27;4.77;;;9.80;1.00;;;;;;4972288;28;20186;-66
2022/11/05 05:08:57;;;;;;;7.83;6.40;;;9.80;1.00;;;;;;4971657;28;20185;-66
2022/11/05 05:11:23;;;;;;;30.10;5.83;;;9.80;1.00;;;;;;4960777;28;20181;-65
2022/11/05 05:13:49;;;;;;;11.10;4.33;;;9.80;1.00;;;;;;4957855;28;20201;-66
2022/11/05 05:16:26;;;;;;;6.67;4.60;;;9.80;1.00;;;;;;4961698;28;20260;-66
2022/11/05 05:18:53;;;;;;;15.23;4.43;;;9.80;1.00;;;;;;4971774;28;20197;-65
2022/11/05 05:21:38;;;;;;;8.00;3.83;;;9.80;1.00;;;;;;4970455;28;20417;-67
2022/11/05 05:24:13;;;;;;;3.90;3.60;;;9.80;1.00;;;;;;4971413;28;20421;-66
2022/11/05 05:26:44;;;;;;;6.90;3.20;;;9.80;1.00;;;;;;4971643;28;20439;-66
2022/11/05 05:29:10;;;;;;;4.57;3.87;;;9.70;1.00;;;;;;4969704;28;20495;-67
2022/11/05 05:31:36;;;;;;;7.30;6.30;;;9.70;1.00;;;;;;4959084;28;20406;-66
2022/11/05 05:34:02;;;;;;;10.20;4.57;;;9.70;1.00;;;;;;4954000;28;20976;-65
2022/11/05 05:36:29;;;;;;;7.40;3.90;;;9.70;1.00;;;;;;4968386;28;20497;-65
2022/11/05 05:38:54;;;;;;;13.90;4.40;;;9.70;1.00;;;;;;4952295;28;20449;-66
2022/11/05 05:41:20;;;;;;;5.13;3.77;;;9.70;1.00;;;;;;4963504;28;20441;-66
2022/11/05 05:43:46;;;;;;;14.03;5.33;;;9.80;1.00;;;;;;4971787;28;20249;-66
2022/11/05 05:46:14;;;;;;;5.53;3.77;;;9.80;1.00;;;;;;4970982;28;20628;-67
2022/11/05 05:48:40;;;;;;;4.40;4.00;;;9.80;1.00;;;;;;4971457;28;20409;-66
2022/11/05 05:51:10;;;;;;;20.13;5.73;;;9.70;1.00;;;;;;4970171;28;20460;-65
2022/11/05 05:53:36;;;;;;;26.03;5.97;;;9.80;1.00;;;;;;4970954;28;20492;-66
2022/11/05 05:56:03;;;;;;;14.17;4.57;;;9.80;1.00;;;;;;4971026;28;20552;-65
2022/11/05 05:58:37;;;;;;;33.13;7.10;;;9.80;1.00;;;;;;4968536;28;20421;-66
2022/11/05 06:01:06;;;;;;;17.77;5.77;;;9.80;1.00;;;;;;4960057;28;20798;-65
2022/11/05 06:03:33;;;;;;;26.40;7.20;;;9.80;1.00;;;;;;4963409;28;20431;-66
2022/11/05 06:06:04;;;;;;;13.83;5.77;;;9.70;1.00;;;;;;4969334;28;20455;-66
2022/11/05 06:08:30;;;;;;;12.63;5.90;;;9.70;1.00;;;;;;4969370;28;20950;-66
2022/11/05 06:10:58;;;;;;;29.07;7.20;;;9.70;1.00;;;;;;4969752;28;20492;-66
2022/11/05 06:13:24;;;;;;;12.43;5.27;;;9.80;1.00;;;;;;4969215;28;20456;-66
2022/11/05 06:15:50;;;;;;;54.77;9.50;;;9.70;1.00;;;;;;4971018;28;20773;-65
2022/11/05 06:18:16;;;;;;;34.40;8.17;;;9.70;1.00;;;;;;4970858;28;20433;-66
2022/11/05 06:20:41;;;;;;;25.23;6.20;;;9.80;1.00;;;;;;4969821;28;20654;-66
2022/11/05 06:23:07;;;;;;;38.80;6.70;;;9.80;1.00;;;;;;4970944;28;20221;-65
2022/11/05 06:25:32;;;;;;;45.97;7.53;;;9.80;1.00;;;;;;4971020;28;20250;-67
2022/11/05 06:27:58;;;;;;;11.93;5.33;;;9.80;1.00;;;;;;4971041;28;20599;-66
2022/11/05 06:30:24;;;;;;;23.70;6.17;;;9.70;1.00;;;;;;4970148;28;20165;-66
2022/11/05 06:32:50;;;;;;;18.20;7.43;;;9.70;1.00;;;;;;4970802;28;20241;-67
2022/11/05 06:35:16;;;;;;;22.67;5.03;;;9.70;1.00;;;;;;4966935;28;20170;-66
2022/11/05 06:37:41;;;;;;;62.03;11.27;;;9.70;1.00;;;;;;4966107;28;20197;-66
2022/11/05 06:40:08;;;;;;;20.57;6.80;;;9.70;1.00;;;;;;4967308;28;20411;-66
2022/11/05 06:42:34;;;;;;;44.60;8.60;;;9.70;1.00;;;;;;4968728;28;20182;-66
2022/11/05 06:44:59;;;;;;;36.10;7.67;;;9.70;1.00;;;;;;4971018;28;20432;-67
2022/11/05 06:47:25;;;;;;;24.23;5.20;;;9.70;1.00;;;;;;4971437;28;20209;-67
2022/11/05 06:49:51;;;;;;;16.70;5.97;;;9.70;1.00;;;;;;4970913;28;20236;-66
2022/11/05 06:52:17;;;;;;;20.57;7.93;;;9.60;1.00;;;;;;4970661;28;20174;-66
2022/11/05 06:54:43;;;;;;;22.50;6.10;;;9.70;1.00;;;;;;4971202;28;20188;-66
2022/11/05 06:57:10;;;;;;;11.80;4.97;;;9.70;1.00;;;;;;4971665;28;20371;-66
2022/11/05 06:59:37;;;;;;;16.53;5.23;;;9.80;1.00;;;;;;4971037;28;20401;-66
2022/11/05 07:02:03;;;;;;;25.77;5.53;;;9.70;1.00;;;;;;4969032;28;20425;-66
2022/11/05 07:04:28;;;;;;;17.33;5.73;;;9.80;1.00;;;;;;4969751;28;20437;-66
2022/11/05 07:06:54;;;;;;;7.73;5.50;;;9.70;1.00;;;;;;4964554;28;20942;-67
2022/11/05 07:09:19;;;;;;;23.20;6.37;;;9.80;1.00;;;;;;4951551;28;20194;-67
2022/11/05 07:11:45;;;;;;;14.30;5.43;;;9.80;1.00;;;;;;4966379;28;20188;-67
2022/11/05 07:14:11;;;;;;;9.87;5.80;;;9.90;1.00;;;;;;4971566;28;20288;-66
2022/11/05 07:16:36;;;;;;;22.23;5.93;;;9.90;1.00;;;;;;4975918;28;20563;-66
2022/11/05 07:19:03;;;;;;;12.20;4.93;;;9.90;1.00;;;;;;4968447;28;20403;-67
2022/11/05 07:21:28;;;;;;;12.77;4.60;;;9.90;1.00;;;;;;4977131;28;20200;-66
2022/11/05 07:23:54;;;;;;;25.33;5.90;;;9.90;1.00;;;;;;4977823;28;20456;-66
2022/11/05 07:26:19;;;;;;;11.77;4.20;;;9.90;1.00;;;;;;4977588;28;20198;-66
2022/11/05 07:28:45;;;;;;;9.03;4.10;;;9.90;1.00;;;;;;4972469;28;20213;-67
2022/11/05 07:31:11;;;;;;;8.70;3.77;;;9.90;1.00;;;;;;4974687;28;20332;-66
2022/11/05 07:33:36;;;;;;;9.50;4.23;;;9.90;1.00;;;;;;4976913;28;20217;-66
2022/11/05 07:36:02;;;;;;;26.70;6.50;;;10.00;1.00;;;;;;4969788;28;20254;-65
2022/11/05 07:38:28;;;;;;;7.10;4.50;;;10.00;1.00;;;;;;4969288;28;20237;-66
2022/11/05 07:40:54;;;;;;;23.73;6.43;;;10.00;1.00;;;;;;4951289;28;20173;-66
2022/11/05 07:43:19;;;;;;;41.47;7.00;;;10.00;1.00;;;;;;4960600;28;20618;-66
2022/11/05 07:45:46;;;;;;;22.27;6.70;;;10.00;1.00;;;;;;4974274;28;20221;-66
2022/11/05 07:48:12;;;;;;;94.90;11.87;;;10.10;1.00;;;;;;4975003;28;20181;-66
2022/11/05 07:50:38;;;;;;;37.53;7.90;;;10.20;1.00;;;;;;4970634;28;20918;-66
2022/11/05 07:53:10;;;;;;;102.43;15.30;;;10.20;1.00;;;;;;4954156;28;20292;-66
2022/11/05 07:55:36;;;;;;;16.93;6.03;;;10.30;1.00;;;;;;4969864;28;20567;-66
2022/11/05 07:58:03;;;;;;;13.13;6.43;;;10.40;1.00;;;;;;4973431;28;20441;-66
2022/11/05 08:00:29;;;;;;;10.70;5.40;;;10.50;1.00;;;;;;4969530;28;20201;-66
2022/11/05 08:02:56;;;;;;;92.37;16.00;;;10.60;1.00;;;;;;4954164;28;20469;-66
2022/11/05 08:05:22;;;;;;;42.40;8.13;;;10.80;1.00;;;;;;4954302;28;20410;-66
2022/11/05 08:07:47;;;;;;;25.03;6.10;;;10.80;99.90;;;;;;4967307;28;21174;-66
2022/11/05 08:10:13;;;;;;;23.43;6.97;;;10.90;99.90;;;;;;4963302;28;20217;-65
2022/11/05 08:12:39;;;;;;;18.20;4.47;;;10.90;99.90;;;;;;4952708;29;20209;-66
2022/11/05 08:15:05;;;;;;;79.87;11.90;;;11.20;1.00;;;;;;4962983;28;20178;-66
2022/11/05 08:17:31;;;;;;;39.13;7.40;;;12.00;1.00;;;;;;4970512;28;20597;-66
2022/11/05 08:19:56;;;;;;;13.73;5.23;;;11.60;1.00;;;;;;4957873;28;20442;-66
2022/11/05 08:22:22;;;;;;;33.73;6.60;;;11.40;1.00;;;;;;4952606;28;20201;-64
2022/11/05 08:24:48;;;;;;;111.07;18.80;;;11.30;1.00;;;;;;4960503;28;20178;-67
2022/11/05 08:27:14;;;;;;;84.00;14.00;;;11.30;1.00;;;;;;4970962;28;20754;-67
2022/11/05 08:29:39;;;;;;;64.07;9.30;;;11.20;1.00;;;;;;4965809;28;20173;-68
2022/11/05 08:32:05;;;;;;;16.97;5.17;;;11.20;25.80;;;;;;4972111;28;20551;-69
2022/11/05 08:34:31;;;;;;;7.80;3.80;;;11.10;1.00;;;;;;4971072;28;20202;-69
2022/11/05 08:36:58;;;;;;;6.43;4.03;;;11.10;1.00;;;;;;4972133;28;20269;-67
2022/11/05 08:39:24;;;;;;;3.80;3.37;;;10.90;99.90;;;;;;4963026;28;20333;-68
2022/11/05 08:41:50;;;;;;;22.53;4.60;;;10.90;1.00;;;;;;4971996;28;20910;-68
2022/11/05 08:44:16;;;;;;;4.10;3.20;;;10.90;1.00;;;;;;4971379;28;20525;-68
2022/11/05 08:46:42;;;;;;;5.30;3.97;;;10.90;99.90;;;;;;4971039;28;20277;-68
2022/11/05 08:49:07;;;;;;;7.60;3.67;;;11.00;1.00;;;;;;4963670;28;20520;-68
2022/11/05 08:51:33;;;;;;;4.10;3.30;;;10.90;1.00;;;;;;4956046;28;20173;-69
2022/11/05 08:53:59;;;;;;;5.53;3.03;;;10.90;1.00;;;;;;4970502;28;20205;-69
2022/11/05 08:56:24;;;;;;;10.30;4.47;;;10.80;1.00;;;;;;4970423;28;20195;-69
2022/11/05 08:58:50;;;;;;;22.43;7.90;;;10.80;1.00;;;;;;4969210;28;20170;-68
2022/11/05 09:01:16;;;;;;;19.93;4.80;;;10.90;1.00;;;;;;4965739;28;20174;-67
2022/11/05 09:03:41;;;;;;;18.93;5.20;;;10.90;1.00;;;;;;4970837;28;20181;-68
2022/11/05 09:06:07;;;;;;;10.47;4.93;;;10.90;1.00;;;;;;4972088;28;20189;-67
2022/11/05 09:08:33;;;;;;;5.20;3.33;;;10.90;1.00;;;;;;4971427;28;20188;-68
2022/11/05 09:10:59;;;;;;;13.07;4.70;;;10.90;1.00;;;;;;4952523;29;20183;-67
2022/11/05 09:13:25;;;;;;;3.47;3.10;;;10.90;1.00;;;;;;4967933;28;20208;-66
2022/11/05 09:15:51;;;;;;;15.20;4.17;;;10.80;1.00;;;;;;4951659;28;20249;-66
2022/11/05 09:18:18;;;;;;;37.17;6.60;;;10.70;99.90;;;;;;4953827;28;20448;-67
2022/11/05 09:20:44;;;;;;;6.60;3.60;;;10.60;99.90;;;;;;4952694;28;20213;-67
2022/11/05 09:23:11;;;;;;;20.10;5.30;;;10.70;99.90;;;;;;4953838;29;20449;-66
2022/11/05 09:25:36;;;;;;;37.93;7.07;;;10.70;99.90;;;;;;4954060;28;20484;-66
2022/11/05 09:28:15;;;;;;;27.00;5.10;;;10.70;99.90;;;;;;4954243;28;20410;-66
2022/11/05 09:30:43;;;;;;;12.40;4.50;;;10.70;99.90;;;;;;4952579;28;20316;-65
2022/11/05 09:33:09;;;;;;;28.40;6.27;;;10.70;99.90;;;;;;4953479;28;20866;-67
2022/11/05 09:35:38;;;;;;;11.37;3.93;;;10.70;99.90;;;;;;4954186;29;20493;-65
2022/11/05 09:38:04;;;;;;;50.53;8.63;;;10.70;99.90;;;;;;4967037;28;20943;-66
2022/11/05 09:40:35;;;;;;;110.43;13.60;;;10.70;99.90;;;;;;4951529;28;20497;-66
2022/11/05 09:43:01;;;;;;;51.80;7.53;;;10.70;99.90;;;;;;4952239;28;20413;-68
2022/11/05 09:45:29;;;;;;;53.97;9.00;;;10.60;99.90;;;;;;4951731;28;20500;-66
2022/11/05 09:48:00;;;;;;;78.03;12.30;;;10.60;99.90;;;;;;4952552;28;20414;-66
2022/11/05 09:50:46;;;;;;;25.83;5.43;;;10.70;99.90;;;;;;4951014;28;20410;-66
2022/11/05 09:53:15;;;;;;;47.70;6.77;;;10.70;99.90;;;;;;4951550;28;20850;-67
2022/11/05 09:56:01;;;;;;;16.47;4.40;;;10.70;99.90;;;;;;4951824;28;20426;-66
2022/11/05 09:58:37;;;;;;;10.70;2.90;;;10.80;99.90;;;;;;4961196;28;20786;-66
2022/11/05 10:01:09;;;;;;;10.63;3.60;;;10.70;99.90;;;;;;4970332;28;20460;-66
2022/11/05 10:03:43;;;;;;;20.17;3.97;;;10.80;99.90;;;;;;4971283;28;20492;-66
2022/11/05 10:06:13;;;;;;;10.77;3.80;;;10.90;99.90;;;;;;4970525;28;20433;-67
2022/11/05 10:08:43;;;;;;;8.93;4.30;;;10.90;99.90;;;;;;4971124;28;20775;-66
2022/11/05 10:11:15;;;;;;;13.27;4.80;;;10.90;99.90;;;;;;4970175;28;20468;-66
2022/11/05 10:13:46;;;;;;;4.60;3.10;;;10.90;99.90;;;;;;4971046;28;20503;-66
2022/11/05 10:16:29;;;;;;;3.50;2.73;;;11.00;99.90;;;;;;4970675;28;20431;-66
2022/11/05 10:19:14;;;;;;;4.83;4.10;;;11.00;1.00;;;;;;4971153;28;20409;-66
2022/11/05 10:21:40;;;;;;;8.93;4.30;;;11.00;1.00;;;;;;4965019;28;20410;-69
2022/11/05 10:24:17;;;;;;;11.77;4.23;;;11.00;1.00;;;;;;4951076;28;20417;-67
2022/11/05 10:26:46;;;;;;;5.10;4.57;;;11.40;1.00;;;;;;4950987;28;20433;-67
2022/11/05 10:29:21;;;;;;;5.50;4.50;;;11.30;1.00;;;;;;4951161;28;20414;-67
2022/11/05 10:31:47;;;;;;;17.13;5.67;;;11.10;1.00;;;;;;4950828;28;20783;-67
2022/11/05 10:34:16;;;;;;;68.83;9.57;;;11.00;1.00;;;;;;4950725;28;20782;-67
2022/11/05 10:36:42;;;;;;;16.90;6.37;;;11.00;1.00;;;;;;4958533;28;21165;-68
2022/11/05 10:39:16;;;;;;;11.50;4.73;;;11.10;99.90;;;;;;4970167;28;20416;-69
2022/11/05 10:42:10;;;;;;;10.77;4.87;;;11.20;1.00;;;;;;4963324;28;20453;-67
2022/11/05 10:44:41;;;;;;;6.33;3.77;;;11.10;15.60;;;;;;4970130;28;20405;-67
2022/11/05 10:47:44;;;;;;;7.07;4.00;;;11.30;99.90;;;;;;4970207;28;20818;-67
2022/11/05 10:50:24;;;;;;;12.47;4.00;;;11.80;99.90;;;;;;4969743;28;20924;-67
2022/11/05 10:53:08;;;;;;;10.57;4.27;;;12.40;1.00;;;;;;4969720;28;20464;-67
2022/11/05 10:55:37;;;;;;;11.60;4.47;;;12.90;1.00;;;;;;4968412;28;20463;-68
2022/11/05 10:58:14;;;;;;;15.30;4.17;;;13.20;99.90;;;;;;4970019;28;21174;-67
2022/11/05 11:00:43;;;;;;;157.27;19.90;;;12.90;99.90;;;;;;4969188;28;20738;-68
2022/11/05 11:03:49;;;;;;;172.10;17.07;;;12.80;99.90;;;;;;4970107;28;20412;-67
2022/11/05 11:06:30;;;;;;;101.77;14.00;;;13.20;89.50;;;;;;4967340;28;20532;-67
2022/11/05 11:08:59;;;;;;;27.70;6.90;;;13.10;29.30;;;;;;4967970;28;20408;-67
2022/11/05 11:11:37;;;;;;;20.10;4.90;;;13.30;37.90;;;;;;4967352;28;20417;-67
2022/11/05 11:14:19;;;;;;;33.47;6.33;;;13.50;1.00;;;;;;4975589;28;20462;-69
2022/11/05 11:16:56;;;;;;;4.27;3.60;;;13.50;1.00;;;;;;4987063;28;20897;-68
2022/11/05 11:19:27;;;;;;;14.07;4.23;;;13.30;1.00;;;;;;4965288;28;20422;-67
2022/11/05 11:22:02;;;;;;;32.70;7.17;;;13.00;1.00;;;;;;4951278;28;20440;-67
2022/11/05 11:24:29;;;;;;;29.80;8.30;;;12.80;1.00;;;;;;4951777;28;20421;-68
2022/11/05 11:27:02;;;;;;;40.90;6.90;;;12.50;1.00;;;;;;4951912;29;20888;-67
2022/11/05 11:29:28;;;;;;;6.80;5.27;;;12.40;1.00;;;;;;4951699;29;21030;-68
2022/11/05 11:31:57;;;;;;;7.47;5.60;;;12.20;1.00;;;;;;4951260;28;20799;-68
2022/11/05 11:34:27;;;;;;;9.70;7.40;;;12.10;1.00;;;;;;4951280;29;20668;-68
2022/11/05 11:37:04;;;;;;;54.87;13.50;;;12.10;25.00;;;;;;4952940;28;20484;-69
2022/11/05 11:39:31;;;;;;;10.90;6.30;;;12.00;52.70;;;;;;4954685;28;20784;-68
2022/11/05 11:42:04;;;;;;;9.77;6.40;;;11.90;76.00;;;;;;4962131;28;20424;-67
2022/11/05 11:44:35;;;;;;;8.40;5.90;;;11.90;99.90;;;;;;4973804;28;20416;-68
2022/11/05 11:47:07;;;;;;;6.47;4.63;;;11.90;99.90;;;;;;4969082;28;20470;-68
2022/11/05 11:49:48;;;;;;;14.80;4.10;;;12.00;99.90;;;;;;4971661;28;20429;-68
2022/11/05 11:52:17;;;;;;;9.67;4.60;;;11.90;99.90;;;;;;4963725;28;20410;-69
2022/11/05 11:54:43;;;;;;;11.37;4.03;;;11.80;99.90;;;;;;4954228;28;20833;-69
2022/11/05 11:57:28;;;;;;;10.17;3.37;;;11.80;99.90;;;;;;4972047;28;20429;-68
2022/11/05 11:59:56;;;;;;;7.10;3.47;;;11.70;99.90;;;;;;4972469;28;20293;-67
2022/11/05 12:02:46;;;;;;;7.63;4.47;;;11.70;99.90;;;;;;4969954;28;20508;-68
2022/11/05 12:05:39;;;;;;;33.00;6.20;;;11.70;99.90;;;;;;4970418;28;20507;-67
2022/11/05 12:08:36;;;;;;;34.40;5.40;;;11.70;99.90;;;;;;4968635;28;20953;-67
2022/11/05 12:11:04;;;;;;;44.23;7.20;;;11.40;99.90;;;;;;4974070;28;20433;-67
2022/11/05 12:13:48;;;;;;;19.50;4.87;;;11.50;99.90;;;;;;4969950;28;20468;-68
2022/11/05 12:16:19;;;;;;;48.40;8.93;;;11.40;99.90;;;;;;4972286;28;20813;-67
2022/11/05 12:19:09;;;;;;;29.07;5.77;;;11.30;1.00;;;;;;4972556;28;20440;-67
2022/11/05 12:21:41;;;;;;;38.50;6.60;;;11.40;1.00;;;;;;4963808;28;20512;-67
2022/11/05 12:24:39;;;;;;;16.70;6.67;;;11.40;1.00;;;;;;4964498;28;20412;-67
2022/11/05 12:27:11;;;;;;;4.43;2.93;;;11.50;1.00;;;;;;4971750;28;20464;-67
2022/11/05 12:29:45;;;;;;;13.03;3.97;;;11.40;1.00;;;;;;4970047;28;20491;-68
2022/11/05 12:32:34;;;;;;;4.63;3.97;;;11.50;1.00;;;;;;4968554;28;20466;-66
2022/11/05 12:35:40;;;;;;;4.70;3.07;;;11.50;1.00;;;;;;4965308;28;20606;-66
2022/11/05 12:38:22;;;;;;;4.33;3.00;;;11.50;1.00;;;;;;4967900;28;20421;-66
2022/11/05 12:41:15;;;;;;;3.53;2.77;;;11.60;1.00;;;;;;4967933;28;20431;-66
2022/11/05 12:43:54;;;;;;;9.10;3.00;;;11.60;1.00;;;;;;4969434;28;20782;-66
2022/11/05 12:46:48;;;;;;;11.47;4.30;;;11.70;1.00;;;;;;4964780;28;20468;-67
2022/11/05 12:49:23;;;;;;;33.13;5.10;;;11.60;1.00;;;;;;4969804;28;20413;-66
2022/11/05 12:51:54;;;;;;;30.33;4.40;;;11.70;1.00;;;;;;4968767;28;20925;-66
2022/11/05 12:54:40;;;;;;;64.67;7.80;;;11.60;1.00;;;;;;4959778;28;20540;-66
2022/11/05 12:57:11;;;;;;;5.57;2.80;;;11.70;1.00;;;;;;4962419;28;20527;-66
2022/11/05 12:59:45;;;;;;;27.33;4.40;;;11.60;99.90;;;;;;4957471;28;20505;-69
2022/11/05 13:02:47;;;;;;;45.67;7.33;;;11.60;99.90;;;;;;4965984;28;20881;-67
2022/11/05 13:05:38;;;;;;;9.10;2.83;;;11.70;99.90;;;;;;4985920;28;20421;-67
2022/11/05 13:08:07;;;;;;;15.50;3.73;;;11.70;99.90;;;;;;4969965;28;21131;-67
2022/11/05 13:10:35;;;;;;;21.67;4.13;;;11.60;99.90;;;;;;4968377;28;20902;-67
2022/11/05 13:13:08;;;;;;;13.40;4.83;;;11.50;99.90;;;;;;4969851;28;20567;-68
2022/11/05 13:15:41;;;;;;;7.80;3.10;;;11.40;99.90;;;;;;4969204;28;20487;-67
2022/11/05 13:18:20;;;;;;;4.47;2.90;;;11.50;99.90;;;;;;4970030;28;20726;-66
2022/11/05 13:20:49;;;;;;;23.10;6.60;;;11.50;99.90;;;;;;4967953;28;20412;-67
2022/11/05 13:23:31;;;;;;;12.13;5.00;;;11.40;99.90;;;;;;4969400;28;20409;-68
2022/11/05 13:26:11;;;;;;;5.43;3.10;;;11.30;99.90;;;;;;4969803;28;20435;-66
2022/11/05 13:28:46;;;;;;;12.50;3.73;;;11.30;99.90;;;;;;4968891;28;20451;-68
2022/11/05 13:31:17;;;;;;;11.53;3.50;;;11.30;99.90;;;;;;4968616;28;20503;-66
2022/11/05 13:33:46;;;;;;;14.03;3.60;;;11.40;99.90;;;;;;4968886;28;20457;-68
2022/11/05 13:39:14;;;;;;;31.93;6.00;;;11.40;99.90;;;;;;4969616;28;20408;-67
2022/11/05 13:41:47;;;;;;;34.50;6.30;;;11.50;99.90;;;;;;4967400;28;20408;-67
2022/11/05 13:44:39;;;;;;;26.80;5.13;;;11.50;99.90;;;;;;4968926;28;20412;-67
2022/11/05 13:47:24;;;;;;;37.50;7.40;;;11.50;99.90;;;;;;4969237;28;20518;-68
2022/11/05 13:49:58;;;;;;;9.33;3.80;;;11.40;99.90;;;;;;4968376;28;20407;-68
2022/11/05 13:52:33;;;;;;;18.07;4.40;;;11.40;99.90;;;;;;4967995;28;20412;-69
2022/11/05 13:55:17;;;;;;;20.13;5.13;;;11.40;99.90;;;;;;4953879;28;20740;-69
2022/11/05 13:57:56;;;;;;;6.10;3.47;;;11.50;99.90;;;;;;4953774;28;20438;-68
2022/11/05 14:00:24;;;;;;;18.00;4.70;;;11.40;99.90;;;;;;4952066;28;20951;-69